Startpagina
METAR-TAF:

METAR-TAF

Vliegvelden :

Luchthaven Łódź-Lublinek

Łódź, Polen

breedte: 51-43-19N, lengte: 019-23-53E, hoogte: 184 m

Actueel weer

Dit bericht is 17 minuten geleden gemaakt, om 22:30 UTC
Wind 8 kt uit het oostnoordoosten
Temperatuur 16°C
Vochtigheid 59%
Druk 1023 hPa
Zicht 10 km of meer
geen wolken onder 1500 m en geen cumulonimbus

METAR: EPLL 232230Z 06008KT CAVOK 16/08 Q1023

Tijdstip: 00:47 (22:47 UTC)

Verwachting

Dit bericht is 5 uur en het 17 minuten geleden gemaakt, om 17:30 UTC
Verwachting geldig van 23 om 18 UTC tot 24 om 18 UTC
Wind 12 kt uit het noordnoordoosten
Zicht 10 km of meer
geen wolken onder 1500 m en geen cumulonimbus

TAF: EPLL 231730Z 2318/2418 02012KT CAVOK

Waarnemingen en weersverwachtingen van meer dan 4000 vliegvelden (METAR en TAF).

De beschikbare stations zijn de gele en rode punten op de kaart.

Ga met uw muis naar het station om de naam te zien.

Klik dan om waarnemingen en weersverwachtingen te zien.

kaart wijzigen: klik op de groene knoppen met een zwart kruis om in te zoomen, op de groene knop met een streepje om uit te zoomen of op de groene pijlen voor aangrenzende kaarten.


METAR-TAF: